createdAt,value
2019-06-26T00:01:59.790Z,4.95
2019-06-26T00:04:29.341Z,5.72
2019-06-26T00:06:58.523Z,5.60
2019-06-26T00:09:27.822Z,5.67
2019-06-26T00:14:25.434Z,5.45
2019-06-26T00:16:54.566Z,5.35
2019-06-26T00:19:23.945Z,5.47
2019-06-26T00:21:53.174Z,5.37
2019-06-26T00:24:22.331Z,6.35
2019-06-26T00:26:51.451Z,5.87
2019-06-26T00:29:20.660Z,5.00
2019-06-26T00:31:49.812Z,5.75
2019-06-26T00:34:19.066Z,5.50
2019-06-26T00:36:48.172Z,5.83
2019-06-26T00:39:17.359Z,5.87
2019-06-26T00:41:49.021Z,5.72
2019-06-26T00:44:18.167Z,5.53
2019-06-26T00:46:47.359Z,5.42
2019-06-26T00:49:16.613Z,5.42
2019-06-26T00:51:45.758Z,6.55
2019-06-26T00:54:14.915Z,6.37
2019-06-26T00:56:44.081Z,5.65
2019-06-26T00:59:13.249Z,6.47
2019-06-26T01:01:42.412Z,6.62
2019-06-26T01:04:16.614Z,6.20
2019-06-26T01:06:45.783Z,5.58
2019-06-26T01:09:15.706Z,6.35
2019-06-26T01:11:45.368Z,6.55
2019-06-26T01:14:14.578Z,5.92
2019-06-26T01:16:43.726Z,6.47
2019-06-26T01:19:12.897Z,6.25
2019-06-26T01:21:42.944Z,5.45
2019-06-26T01:24:12.087Z,6.58
2019-06-26T01:26:41.252Z,6.22
2019-06-26T01:29:10.424Z,6.53
2019-06-26T01:31:39.611Z,5.80
2019-06-26T01:34:08.730Z,6.80
2019-06-26T01:36:37.907Z,6.12
2019-06-26T01:39:07.484Z,5.97
2019-06-26T01:41:36.677Z,5.97
2019-06-26T01:44:14.737Z,5.55
2019-06-26T01:46:37.174Z,6.20
2019-06-26T01:49:06.307Z,5.85
2019-06-26T01:51:35.615Z,6.72
2019-06-26T01:54:04.741Z,5.80
2019-06-26T01:56:33.898Z,5.90
2019-06-26T01:59:03.355Z,6.03
2019-06-26T02:01:32.562Z,6.50
2019-06-26T02:04:01.730Z,5.62
2019-06-26T02:06:30.889Z,6.08
2019-06-26T02:09:00.096Z,5.97
2019-06-26T02:11:29.286Z,6.10
2019-06-26T02:13:58.446Z,5.45
2019-06-26T02:16:27.592Z,6.50
2019-06-26T02:19:00.419Z,5.97
2019-06-26T02:21:29.920Z,5.47
2019-06-26T02:26:31.872Z,5.78
2019-06-26T02:29:01.047Z,5.87
2019-06-26T02:31:31.870Z,6.15
2019-06-26T02:34:01.074Z,6.05
2019-06-26T02:36:30.589Z,6.70
2019-06-26T02:41:27.926Z,5.92
2019-06-26T02:44:01.809Z,6.00
2019-06-26T02:46:30.951Z,6.45
2019-06-26T02:49:00.125Z,6.60
2019-06-26T02:51:29.311Z,6.97
2019-06-26T02:54:04.154Z,6.28
2019-06-26T02:56:33.382Z,5.75
2019-06-26T02:59:02.521Z,6.65
2019-06-26T03:01:31.894Z,6.60
2019-06-26T03:04:01.051Z,6.33
2019-06-26T03:06:30.219Z,5.75
2019-06-26T03:08:59.278Z,5.78
2019-06-26T03:11:28.455Z,6.50
2019-06-26T03:13:57.633Z,6.15
2019-06-26T03:16:26.733Z,5.92
2019-06-26T03:18:55.913Z,6.22
2019-06-26T03:21:25.281Z,6.25
2019-06-26T03:23:54.347Z,6.05
2019-06-26T03:26:23.511Z,5.78
2019-06-26T03:28:52.718Z,6.08
2019-06-26T03:31:21.982Z,6.58
2019-06-26T03:33:51.832Z,7.62
2019-06-26T03:36:21.017Z,6.08
2019-06-26T03:38:50.163Z,6.72
2019-06-26T03:41:19.314Z,6.40
2019-06-26T03:43:48.493Z,6.78
2019-06-26T03:46:17.665Z,6.10
2019-06-26T03:48:46.824Z,6.97
2019-06-26T03:51:15.973Z,6.00
2019-06-26T03:53:45.179Z,6.20
2019-06-26T03:56:14.327Z,6.80
2019-06-26T03:58:43.528Z,8.23
2019-06-26T04:01:12.947Z,6.60
2019-06-26T04:03:42.130Z,6.28
2019-06-26T04:06:11.307Z,6.30
2019-06-26T04:08:40.473Z,7.28
2019-06-26T04:11:09.669Z,6.25
2019-06-26T04:13:38.864Z,6.08
2019-06-26T04:16:08.038Z,6.28
2019-06-26T04:18:37.190Z,6.50
2019-06-26T04:21:06.399Z,7.25
2019-06-26T04:23:37.324Z,7.30
2019-06-26T04:26:06.492Z,6.50
2019-06-26T04:28:35.723Z,6.92
2019-06-26T04:31:04.933Z,7.15
2019-06-26T04:33:34.120Z,7.67
2019-06-26T04:36:03.286Z,6.87
2019-06-26T04:38:32.610Z,6.65
2019-06-26T04:41:01.797Z,7.17
2019-06-26T04:43:31.309Z,7.05
2019-06-26T04:46:00.467Z,6.72
2019-06-26T04:48:29.618Z,6.80
2019-06-26T04:50:58.898Z,6.80
2019-06-26T04:53:28.060Z,7.10
2019-06-26T04:55:57.342Z,6.25
2019-06-26T04:58:26.785Z,6.30
2019-06-26T05:03:24.206Z,6.85
2019-06-26T05:05:53.423Z,6.90
2019-06-26T05:10:50.898Z,6.03
2019-06-26T05:13:20.175Z,6.62
2019-06-26T05:15:49.361Z,6.37
2019-06-26T05:18:18.686Z,5.87
2019-06-26T05:23:16.391Z,5.87
2019-06-26T05:25:45.620Z,6.17
2019-06-26T05:28:14.810Z,5.33
2019-06-26T05:30:44.042Z,6.42
2019-06-26T05:33:13.256Z,6.42
2019-06-26T05:35:42.545Z,6.40
2019-06-26T05:40:40.123Z,6.55
2019-06-26T05:43:09.276Z,6.40
2019-06-26T05:45:38.511Z,6.15
2019-06-26T05:50:36.027Z,5.85
2019-06-26T05:55:35.504Z,5.73
2019-06-26T05:58:04.686Z,5.30
2019-06-26T06:00:33.887Z,5.03
2019-06-26T06:03:03.086Z,5.05
2019-06-26T06:05:32.261Z,4.92
2019-06-26T06:08:01.470Z,5.08
2019-06-26T06:10:30.860Z,4.87
2019-06-26T06:13:00.109Z,4.90
2019-06-26T06:15:34.831Z,4.65
2019-06-26T06:18:04.151Z,4.55
2019-06-26T06:20:38.974Z,4.53
2019-06-26T06:23:08.320Z,5.00
2019-06-26T06:25:37.479Z,4.72
2019-06-26T06:28:06.635Z,4.45
2019-06-26T06:30:35.840Z,4.62
2019-06-26T06:33:05.091Z,4.97
2019-06-26T06:35:34.405Z,4.50
2019-06-26T06:38:03.568Z,4.37
2019-06-26T06:40:32.762Z,4.10
2019-06-26T06:43:01.929Z,4.75
2019-06-26T06:45:32.361Z,4.75
2019-06-26T06:48:01.555Z,4.03
2019-06-26T06:50:30.751Z,4.40
2019-06-26T06:52:59.922Z,4.12
2019-06-26T06:55:29.146Z,4.58
2019-06-26T06:57:58.426Z,4.10
2019-06-26T07:00:27.718Z,4.42
2019-06-26T07:02:56.964Z,4.55
2019-06-26T07:05:26.588Z,5.08
2019-06-26T07:07:55.824Z,4.08
2019-06-26T07:10:25.034Z,4.20
2019-06-26T07:12:54.228Z,4.00
2019-06-26T07:15:23.849Z,4.00
2019-06-26T07:17:53.369Z,4.45
2019-06-26T07:20:22.899Z,3.75
2019-06-26T07:22:52.130Z,4.55
2019-06-26T07:25:21.507Z,4.30
2019-06-26T07:27:50.698Z,4.03
2019-06-26T07:30:20.106Z,3.95
2019-06-26T07:32:49.300Z,4.17
2019-06-26T07:35:18.523Z,3.95
2019-06-26T07:37:47.674Z,3.70
2019-06-26T07:40:17.923Z,3.85
2019-06-26T07:42:47.314Z,4.15
2019-06-26T07:45:17.330Z,4.35
2019-06-26T07:47:46.622Z,3.77
2019-06-26T07:50:15.762Z,3.77
2019-06-26T07:52:44.946Z,3.98
2019-06-26T07:55:14.790Z,4.00
2019-06-26T07:57:44.053Z,3.80
2019-06-26T08:00:13.401Z,4.60
2019-06-26T08:02:42.538Z,3.33
2019-06-26T08:05:11.936Z,4.33
2019-06-26T08:07:41.199Z,4.33
2019-06-26T08:10:10.619Z,4.10
2019-06-26T08:12:39.775Z,4.53
2019-06-26T08:15:09.030Z,3.72
2019-06-26T08:17:38.271Z,4.90
2019-06-26T08:20:07.867Z,3.80
2019-06-26T08:22:36.987Z,4.15
2019-06-26T08:25:06.459Z,4.10
2019-06-26T08:27:35.625Z,3.50
2019-06-26T08:30:05.521Z,4.15
2019-06-26T08:32:34.697Z,4.08
2019-06-26T08:35:03.893Z,4.65
2019-06-26T08:37:35.745Z,3.80
2019-06-26T08:40:05.352Z,4.90
2019-06-26T08:42:34.493Z,4.78
2019-06-26T08:45:03.874Z,4.55
2019-06-26T08:47:33.140Z,3.98
2019-06-26T08:50:02.797Z,4.17
2019-06-26T08:52:33.437Z,4.12
2019-06-26T08:55:04.173Z,3.98
2019-06-26T08:57:33.941Z,4.17
2019-06-26T09:00:03.792Z,4.65
2019-06-26T09:02:33.396Z,4.47
2019-06-26T09:05:02.676Z,4.15
2019-06-26T09:07:31.908Z,5.37
2019-06-26T09:10:01.306Z,4.30
2019-06-26T09:12:30.472Z,4.78
2019-06-26T09:14:59.644Z,4.40
2019-06-26T09:17:28.873Z,4.90
2019-06-26T09:19:58.106Z,5.40
2019-06-26T09:22:27.321Z,5.17
2019-06-26T09:24:56.495Z,5.22
2019-06-26T09:27:25.945Z,4.80
2019-06-26T09:29:55.141Z,4.55
2019-06-26T09:32:24.327Z,4.87
2019-06-26T09:34:53.491Z,5.08
2019-06-26T09:37:22.654Z,4.90
2019-06-26T09:39:51.933Z,4.70
2019-06-26T09:42:21.349Z,5.33
2019-06-26T09:44:50.570Z,5.37
2019-06-26T09:47:19.904Z,5.17
2019-06-26T09:49:49.066Z,5.10
2019-06-26T09:52:18.561Z,4.80
2019-06-26T09:54:48.334Z,5.25
2019-06-26T09:57:17.527Z,5.00
2019-06-26T09:59:46.727Z,5.20
2019-06-26T10:02:15.987Z,5.22
2019-06-26T10:04:46.014Z,5.40
2019-06-26T10:07:15.316Z,5.37
2019-06-26T10:09:45.916Z,5.28
2019-06-26T10:12:15.719Z,5.33
2019-06-26T10:14:47.731Z,5.47
2019-06-26T10:17:15.852Z,4.80
2019-06-26T10:19:45.262Z,5.08
2019-06-26T10:22:17.928Z,5.90
2019-06-26T10:24:48.723Z,5.95
2019-06-26T10:27:18.044Z,5.78
2019-06-26T10:29:47.254Z,5.08
2019-06-26T10:32:20.666Z,5.15
2019-06-26T10:34:49.818Z,5.10
2019-06-26T10:37:18.953Z,5.22
2019-06-26T10:39:48.175Z,5.42
2019-06-26T10:42:17.325Z,4.92
2019-06-26T10:44:46.524Z,4.65
2019-06-26T10:47:15.880Z,5.28
2019-06-26T10:49:45.087Z,5.35
2019-06-26T10:52:14.235Z,5.08
2019-06-26T10:54:44.604Z,5.85
2019-06-26T10:57:14.175Z,5.42
2019-06-26T10:59:43.433Z,4.90
2019-06-26T11:02:16.615Z,5.25
2019-06-26T11:04:43.766Z,6.05
2019-06-26T11:07:12.932Z,5.25
2019-06-26T11:09:42.261Z,6.92
2019-06-26T11:12:11.509Z,7.05
2019-06-26T11:14:40.729Z,6.37
2019-06-26T11:17:09.889Z,6.80
2019-06-26T11:19:43.665Z,6.35
2019-06-26T11:22:09.960Z,6.72
2019-06-26T11:24:39.194Z,6.37
2019-06-26T11:27:08.397Z,6.45
2019-06-26T11:29:37.602Z,5.70
2019-06-26T11:32:09.441Z,7.40
2019-06-26T11:34:37.896Z,6.60
2019-06-26T11:37:07.186Z,6.28
2019-06-26T11:39:36.508Z,6.83
2019-06-26T11:42:05.699Z,6.60
2019-06-26T11:44:34.815Z,7.03
2019-06-26T11:47:03.992Z,6.75
2019-06-26T11:49:33.963Z,6.42
2019-06-26T11:52:03.150Z,6.67
2019-06-26T11:54:32.320Z,6.20
2019-06-26T11:57:01.585Z,6.45
2019-06-26T11:59:30.772Z,5.80
2019-06-26T12:01:59.940Z,6.22
2019-06-26T12:04:29.103Z,6.10
2019-06-26T12:06:58.276Z,5.67
2019-06-26T12:09:28.874Z,6.03
2019-06-26T12:11:58.667Z,6.47
2019-06-26T12:14:31.951Z,6.12
2019-06-26T12:17:01.321Z,5.83
2019-06-26T12:19:30.904Z,5.80
2019-06-26T12:22:00.568Z,5.35
2019-06-26T12:24:29.765Z,5.67
2019-06-26T12:26:59.335Z,5.30
2019-06-26T12:29:28.422Z,4.85
2019-06-26T12:31:57.877Z,4.20
2019-06-26T12:34:27.554Z,4.45
2019-06-26T12:36:57.031Z,3.15
2019-06-26T12:39:26.376Z,3.12
2019-06-26T12:41:56.157Z,3.85
2019-06-26T12:44:25.917Z,4.03
2019-06-26T12:46:55.287Z,4.05
2019-06-26T12:49:24.584Z,4.30
2019-06-26T12:51:53.791Z,4.40
2019-06-26T12:54:22.938Z,4.35
2019-06-26T12:56:52.170Z,4.03
2019-06-26T12:59:21.288Z,4.35
2019-06-26T13:01:50.479Z,4.05
2019-06-26T13:04:19.560Z,5.25
2019-06-26T13:06:48.722Z,4.58
2019-06-26T13:09:18.347Z,4.37
2019-06-26T13:11:47.432Z,4.20
2019-06-26T13:14:16.378Z,3.95
2019-06-26T13:16:45.565Z,4.58
2019-06-26T13:19:14.790Z,4.60
2019-06-26T13:21:43.728Z,4.42
2019-06-26T13:24:12.808Z,4.53
2019-06-26T13:26:41.835Z,5.33
2019-06-26T13:29:10.767Z,5.00
2019-06-26T13:31:39.731Z,4.10
2019-06-26T13:34:08.752Z,4.97
2019-06-26T13:36:37.786Z,5.20
2019-06-26T13:39:07.615Z,5.30
2019-06-26T13:41:36.580Z,4.60
2019-06-26T13:44:05.744Z,4.62
2019-06-26T13:46:34.984Z,4.55
2019-06-26T13:49:04.021Z,5.12
2019-06-26T13:51:33.515Z,5.42
2019-06-26T13:54:02.578Z,4.50
2019-06-26T13:56:31.687Z,4.40
2019-06-26T13:59:00.695Z,4.95
2019-06-26T14:01:29.730Z,4.58
2019-06-26T14:03:58.644Z,4.50
2019-06-26T14:06:27.749Z,3.72
2019-06-26T14:08:56.703Z,3.75
2019-06-26T14:11:25.883Z,3.55
2019-06-26T14:13:54.771Z,3.58
2019-06-26T14:16:23.954Z,3.80
2019-06-26T14:18:53.044Z,3.98
2019-06-26T14:21:25.937Z,4.45
2019-06-26T14:23:52.922Z,3.75
2019-06-26T14:26:23.123Z,4.62
2019-06-26T14:28:53.984Z,4.30
2019-06-26T14:31:22.882Z,4.22
2019-06-26T14:33:51.797Z,5.00
2019-06-26T14:36:23.296Z,4.67
2019-06-26T14:38:51.870Z,5.10
2019-06-26T14:41:20.892Z,4.70
2019-06-26T14:43:49.907Z,5.12
2019-06-26T14:46:18.908Z,4.70
2019-06-26T14:48:49.449Z,4.53
2019-06-26T14:51:20.149Z,4.25
2019-06-26T14:53:49.050Z,5.25
2019-06-26T14:56:18.019Z,5.12
2019-06-26T14:58:47.023Z,5.37
2019-06-26T15:01:16.037Z,5.20
2019-06-26T15:03:45.078Z,5.12
2019-06-26T15:06:16.807Z,5.35
2019-06-26T15:08:44.912Z,4.90
2019-06-26T15:11:15.591Z,5.37
2019-06-26T15:13:44.547Z,4.78
2019-06-26T15:16:13.621Z,4.65
2019-06-26T15:18:42.643Z,4.60
2019-06-26T15:21:11.572Z,4.50
2019-06-26T15:23:40.596Z,4.37
2019-06-26T15:26:09.621Z,4.40
2019-06-26T15:28:38.589Z,4.45
2019-06-26T15:31:07.635Z,4.28
2019-06-26T15:33:36.886Z,4.33
2019-06-26T15:36:05.906Z,3.67
2019-06-26T15:38:34.929Z,4.22
2019-06-26T15:41:03.865Z,4.08
2019-06-26T15:46:01.251Z,3.92
2019-06-26T15:48:30.266Z,4.90
2019-06-26T15:53:27.320Z,3.90
2019-06-26T15:58:24.441Z,4.90
2019-06-26T16:00:53.497Z,4.62
2019-06-26T16:03:22.485Z,4.03
2019-06-26T16:08:19.525Z,4.70
2019-06-26T16:13:16.499Z,4.90
2019-06-26T16:18:21.879Z,4.22
2019-06-26T16:20:50.925Z,4.42
2019-06-26T16:25:50.624Z,4.83
2019-06-26T16:28:19.939Z,4.58
2019-06-26T16:30:49.057Z,4.30
2019-06-26T16:35:47.447Z,3.90
2019-06-26T16:38:16.982Z,4.20
2019-06-26T16:40:46.119Z,4.70
2019-06-26T16:43:15.125Z,4.20
2019-06-26T16:48:13.763Z,4.08
2019-06-26T16:50:43.300Z,4.65
2019-06-26T16:53:12.286Z,3.60
2019-06-26T16:55:43.733Z,5.17
2019-06-26T16:58:12.795Z,4.55
2019-06-26T17:03:10.497Z,5.43
2019-06-26T17:05:40.001Z,4.95
2019-06-26T17:08:09.269Z,4.97
2019-06-26T17:10:38.548Z,4.62
2019-06-26T17:16:04.332Z,3.87
2019-06-26T17:21:01.896Z,4.25
2019-06-26T17:25:59.359Z,4.13
2019-06-26T17:30:57.244Z,3.95
2019-06-26T17:33:26.433Z,3.83
2019-06-26T17:38:24.077Z,3.67
2019-06-26T17:40:53.296Z,4.08
2019-06-26T17:45:50.927Z,3.50
2019-06-26T17:48:20.080Z,4.35
2019-06-26T17:53:21.919Z,3.33
2019-06-26T17:55:48.523Z,3.47
2019-06-26T18:00:46.063Z,4.43
2019-06-26T18:03:15.420Z,4.03
2019-06-26T18:05:44.817Z,3.47
2019-06-26T18:08:14.090Z,3.37
2019-06-26T18:13:11.588Z,3.12
2019-06-26T18:18:09.147Z,3.25
2019-06-26T18:23:07.953Z,3.02
2019-06-26T18:25:37.396Z,3.60
2019-06-26T18:30:35.317Z,2.87
2019-06-26T18:33:04.584Z,3.33
2019-06-26T18:38:02.011Z,3.10
2019-06-26T18:40:31.305Z,3.30
2019-06-26T18:45:28.957Z,3.55
2019-06-26T18:50:26.641Z,3.40
2019-06-26T18:52:56.301Z,3.80
2019-06-26T18:55:25.446Z,3.05
2019-06-26T18:57:54.934Z,3.05
2019-06-26T19:00:25.539Z,3.00
2019-06-26T19:02:56.252Z,2.85
2019-06-26T19:05:26.933Z,3.60
2019-06-26T19:08:01.584Z,3.20
2019-06-26T19:10:30.892Z,3.15
2019-06-26T19:13:00.208Z,3.00
2019-06-26T19:15:29.430Z,2.87
2019-06-26T19:17:58.635Z,2.92
2019-06-26T19:20:27.860Z,2.60
2019-06-26T19:22:57.150Z,2.70
2019-06-26T19:25:28.298Z,3.60
2019-06-26T19:28:00.302Z,3.02
2019-06-26T19:30:32.311Z,2.95
2019-06-26T19:33:09.995Z,3.25
2019-06-26T19:35:39.157Z,2.22
2019-06-26T19:38:09.386Z,2.98
2019-06-26T19:40:39.599Z,2.20
2019-06-26T19:43:11.159Z,2.95
2019-06-26T19:45:39.712Z,2.55
2019-06-26T19:48:09.228Z,4.20
2019-06-26T19:53:07.181Z,3.65
2019-06-26T19:55:36.555Z,3.67
2019-06-26T20:00:34.160Z,3.60
2019-06-26T20:03:03.413Z,3.22
2019-06-26T20:05:33.644Z,2.83
2019-06-26T20:08:02.862Z,2.80
2019-06-26T20:10:33.105Z,3.20
2019-06-26T20:13:02.473Z,3.62
2019-06-26T20:15:31.850Z,4.12
2019-06-26T20:18:04.272Z,3.83
2019-06-26T20:20:33.288Z,3.40
2019-06-26T20:25:33.050Z,3.60
2019-06-26T20:28:10.216Z,4.20
2019-06-26T20:30:41.297Z,3.90
2019-06-26T20:33:15.963Z,3.80
2019-06-26T20:35:45.330Z,3.60
2019-06-26T20:38:15.090Z,4.17
2019-06-26T20:40:46.031Z,4.10
2019-06-26T20:43:15.209Z,4.33
2019-06-26T20:45:44.624Z,4.58
2019-06-26T20:48:13.931Z,4.05
2019-06-26T20:50:44.438Z,4.20
2019-06-26T20:53:13.544Z,4.00
2019-06-26T20:55:43.047Z,4.37
2019-06-26T20:58:18.749Z,4.35
2019-06-26T21:00:55.401Z,4.00
2019-06-26T21:03:24.584Z,4.92
2019-06-26T21:05:53.978Z,3.65
2019-06-26T21:08:23.126Z,4.40
2019-06-26T21:10:52.416Z,4.00
2019-06-26T21:13:21.579Z,5.22
2019-06-26T21:15:52.992Z,4.45
2019-06-26T21:18:24.168Z,5.05
2019-06-26T21:20:53.370Z,4.20
2019-06-26T21:23:23.557Z,4.47
2019-06-26T21:25:52.998Z,4.80
2019-06-26T21:28:22.141Z,4.70
2019-06-26T21:30:51.343Z,4.55
2019-06-26T21:33:20.782Z,4.80
2019-06-26T21:35:54.144Z,4.20
2019-06-26T21:38:23.366Z,4.53
2019-06-26T21:40:52.528Z,5.80
2019-06-26T21:43:21.818Z,5.28
2019-06-26T21:45:50.907Z,5.55
2019-06-26T21:48:20.809Z,5.15
2019-06-26T21:50:50.045Z,5.10
2019-06-26T21:53:19.249Z,5.17
2019-06-26T21:55:48.462Z,4.72
2019-06-26T21:58:17.703Z,4.70
2019-06-26T22:00:47.577Z,4.17
2019-06-26T22:03:17.381Z,4.42
2019-06-26T22:05:46.666Z,5.05
2019-06-26T22:08:15.933Z,4.22
2019-06-26T22:10:45.112Z,3.98
2019-06-26T22:13:14.496Z,3.77
2019-06-26T22:15:43.724Z,3.62
2019-06-26T22:18:12.898Z,3.70
2019-06-26T22:20:42.085Z,3.67
2019-06-26T22:23:11.272Z,3.62
2019-06-26T22:25:50.251Z,3.67
2019-06-26T22:28:11.738Z,3.75
2019-06-26T22:30:41.123Z,3.50
2019-06-26T22:33:10.811Z,3.10
2019-06-26T22:38:08.321Z,2.95
2019-06-26T22:40:37.915Z,3.10
2019-06-26T22:43:07.056Z,3.67
2019-06-26T22:45:38.912Z,3.17
2019-06-26T22:48:08.238Z,2.22
2019-06-26T22:50:37.405Z,2.52
2019-06-26T22:53:06.683Z,2.95
2019-06-26T22:55:35.835Z,2.55
2019-06-26T22:58:05.038Z,2.30
2019-06-26T23:00:34.328Z,2.95
2019-06-26T23:03:03.475Z,2.65
2019-06-26T23:05:32.971Z,2.33
2019-06-26T23:08:02.270Z,2.30
2019-06-26T23:10:31.549Z,2.55
2019-06-26T23:13:00.895Z,2.35
2019-06-26T23:15:30.273Z,2.00
2019-06-26T23:17:59.489Z,1.80
2019-06-26T23:20:28.704Z,2.17
2019-06-26T23:22:57.864Z,1.92
2019-06-26T23:25:26.979Z,1.98
2019-06-26T23:27:56.116Z,1.70
2019-06-26T23:30:25.302Z,1.77
2019-06-26T23:32:55.638Z,2.27
2019-06-26T23:35:24.855Z,1.60
2019-06-26T23:37:54.074Z,2.10
2019-06-26T23:40:23.283Z,1.95
2019-06-26T23:42:52.691Z,2.35
2019-06-26T23:45:22.676Z,2.33
2019-06-26T23:47:51.888Z,1.82
2019-06-26T23:50:21.122Z,2.20
2019-06-26T23:52:50.364Z,2.27
2019-06-26T23:55:19.580Z,2.27
2019-06-26T23:57:59.187Z,2.17
